Terminal Aerodrome Forecast
Issued by NWS

Current Version | Previous Version | Text Only | Print | Product List | Glossary Off
Versions: 1 2 3 4 5 6 7 8 9 10 11 12 13 14 15 16 17 18 19 20 21 22 23 24 25

671
FTUS41 KPBZ 241150
TAFMGW
TAF
KMGW 241150Z 2412/2512 00000KT 2SM -RA BR BKN010
     FM242200 08005KT 3SM SHRA OVC008
     FM250300 14010G18KT 3SM -SHRA OVC010
     FM250600 15009KT 3SM -SHRA OVC015 WS020/20035KT
     FM251100 19011G24KT 3SM -SHRA OVC030=

USA.gov is the U.S. government's official web portal to all federal, state and local government web resources and services.